Time;durP1;ratioP1;P1;durP2;ratioP2;P2;SDS_P1;SDS_P2;PMS_P1;PMS_P2;Temp;Humidity;BMP_temperature;BMP_pressure;BME280_temperature;BME280_humidity;BME280_pressure;Samples;Min_cycle;Max_cycle;Signal;HPM_P1;HPM_P2
2021/04/17 00:02:21;;;;;;;136.48;60.72;;;;;;;;;;4919849;29;20028;-91
2021/04/17 00:04:47;;;;;;;127.03;59.17;;;;;;;;;;4919888;29;20024;-87
2021/04/17 00:07:14;;;;;;;119.78;56.30;;;;;;;;;;4954042;28;20038;-88
2021/04/17 00:09:40;;;;;;;104.07;52.38;;;;;;;;;;4978478;28;20054;-88
2021/04/17 00:12:12;;;;;;;116.45;55.45;;;;;;;;;;4961876;28;20459;-87
2021/04/17 00:14:39;;;;;;;112.80;55.78;;;;;;;;;;4978640;28;20021;-88
2021/04/17 00:17:06;;;;;;;91.93;48.53;;;;;;;;;;4978636;28;20420;-90
2021/04/17 00:19:33;;;;;;;97.38;48.47;;;;;;;;;;4978691;28;20034;-90
2021/04/17 00:21:59;;;;;;;85.85;43.45;;;;;;;;;;4978913;28;20041;-88
2021/04/17 00:24:25;;;;;;;77.18;42.90;;;;;;;;;;4961705;28;20027;-89
2021/04/17 00:26:51;;;;;;;163.18;78.00;;;;;;;;;;4961705;28;20034;-88
2021/04/17 00:29:17;;;;;;;204.05;92.97;;;;;;;;;;4961597;28;20035;-87
2021/04/17 00:31:43;;;;;;;146.50;70.57;;;;;;;;;;4978932;28;20040;-88
2021/04/17 00:34:09;;;;;;;126.63;61.95;;;;;;;;;;4961748;28;20049;-88
2021/04/17 00:36:36;;;;;;;113.07;54.88;;;;;;;;;;4978954;28;20031;-88
2021/04/17 00:39:04;;;;;;;83.07;45.50;;;;;;;;;;4978805;28;20096;-89
2021/04/17 00:41:30;;;;;;;78.35;42.20;;;;;;;;;;4979474;28;20301;-88
2021/04/17 00:43:56;;;;;;;92.53;45.70;;;;;;;;;;4965156;28;20027;-88
2021/04/17 00:46:22;;;;;;;77.53;41.63;;;;;;;;;;4965304;28;20349;-88
2021/04/17 00:48:49;;;;;;;75.80;41.40;;;;;;;;;;4982306;28;20302;-87
2021/04/17 00:51:15;;;;;;;78.82;41.60;;;;;;;;;;4965172;28;20097;-87
2021/04/17 00:53:41;;;;;;;71.00;39.80;;;;;;;;;;4981955;28;20027;-88
2021/04/17 00:56:08;;;;;;;69.28;39.60;;;;;;;;;;4964994;28;20329;-88
2021/04/17 00:58:35;;;;;;;76.82;42.03;;;;;;;;;;4982011;28;20027;-88
2021/04/17 01:01:02;;;;;;;81.68;44.00;;;;;;;;;;4981932;28;20023;-88
2021/04/17 01:03:31;;;;;;;78.03;42.78;;;;;;;;;;4964898;28;20074;-88
2021/04/17 01:06:00;;;;;;;74.60;40.70;;;;;;;;;;4982204;28;20380;-89
2021/04/17 01:08:26;;;;;;;69.90;39.75;;;;;;;;;;4964679;28;20061;-88
2021/04/17 01:10:54;;;;;;;69.20;39.40;;;;;;;;;;4964488;28;20055;-89
2021/04/17 01:13:20;;;;;;;66.35;38.10;;;;;;;;;;4981664;28;20027;-90
2021/04/17 01:15:46;;;;;;;68.72;37.92;;;;;;;;;;4964629;28;20058;-90
2021/04/17 01:18:14;;;;;;;63.95;33.75;;;;;;;;;;4981532;28;20027;-90
2021/04/17 01:20:43;;;;;;;60.22;34.53;;;;;;;;;;4981856;28;20309;-89
2021/04/17 01:23:09;;;;;;;55.15;33.60;;;;;;;;;;4981804;28;20026;-90
2021/04/17 01:25:54;;;;;;;63.72;35.13;;;;;;;;;;4981783;28;20027;-90
2021/04/17 01:28:21;;;;;;;59.03;34.67;;;;;;;;;;4964356;28;20023;-89
2021/04/17 01:30:49;;;;;;;59.20;33.67;;;;;;;;;;4981503;28;20026;-87
2021/04/17 01:33:16;;;;;;;54.90;31.95;;;;;;;;;;4981463;28;20026;-88
2021/04/17 01:35:43;;;;;;;55.97;33.33;;;;;;;;;;4981725;28;20089;-88
2021/04/17 01:38:44;;;;;;;56.10;32.92;;;;;;;;;;4964325;28;20030;-88
2021/04/17 01:41:13;;;;;;;53.83;32.72;;;;;;;;;;4922213;29;20058;-86
2021/04/17 01:43:39;;;;;;;55.55;31.67;;;;;;;;;;4906526;29;20131;-88
2021/04/17 01:46:08;;;;;;;52.55;31.73;;;;;;;;;;4921887;29;20056;-87
2021/04/17 01:48:36;;;;;;;51.03;31.35;;;;;;;;;;4906022;29;20036;-86
2021/04/17 01:51:02;;;;;;;51.40;30.60;;;;;;;;;;4906112;29;20024;-87
2021/04/17 01:53:29;;;;;;;52.83;32.25;;;;;;;;;;4921869;29;20051;-87
2021/04/17 01:55:56;;;;;;;48.75;30.55;;;;;;;;;;4906134;29;20044;-86
2021/04/17 01:58:26;;;;;;;49.13;31.10;;;;;;;;;;4921779;29;20028;-87
2021/04/17 02:00:54;;;;;;;52.85;32.78;;;;;;;;;;4906092;29;20501;-87
2021/04/17 02:03:21;;;;;;;50.92;31.38;;;;;;;;;;4905614;29;20054;-87
2021/04/17 02:05:48;;;;;;;59.53;33.60;;;;;;;;;;4906272;29;20103;-87
2021/04/17 02:08:14;;;;;;;60.53;34.15;;;;;;;;;;4921440;29;20040;-87
2021/04/17 02:10:40;;;;;;;55.53;34.65;;;;;;;;;;4905519;29;20276;-87
2021/04/17 02:13:09;;;;;;;63.22;36.20;;;;;;;;;;4921614;29;20028;-86
2021/04/17 02:15:37;;;;;;;64.30;37.05;;;;;;;;;;4963026;28;20082;-87
2021/04/17 02:18:08;;;;;;;63.65;35.97;;;;;;;;;;4980448;28;20416;-87
2021/04/17 02:20:38;;;;;;;58.72;35.88;;;;;;;;;;4980728;28;20289;-89
2021/04/17 02:23:04;;;;;;;57.88;35.75;;;;;;;;;;4980619;28;20030;-89
2021/04/17 02:25:30;;;;;;;59.88;35.10;;;;;;;;;;4980726;28;20038;-86
2021/04/17 02:27:57;;;;;;;56.15;34.85;;;;;;;;;;4980366;28;20026;-87
2021/04/17 02:30:23;;;;;;;56.30;33.63;;;;;;;;;;4980219;28;20026;-88
2021/04/17 02:35:53;;;;;;;54.35;33.22;;;;;;;;;;4980417;28;20149;-89
2021/04/17 02:38:19;;;;;;;51.70;32.50;;;;;;;;;;4980164;28;20423;-87
2021/04/17 02:40:45;;;;;;;55.70;34.40;;;;;;;;;;4980349;28;20057;-88
2021/04/17 02:43:11;;;;;;;58.13;36.28;;;;;;;;;;4980310;28;20030;-88
2021/04/17 02:45:37;;;;;;;57.20;34.92;;;;;;;;;;4980335;28;20061;-89
2021/04/17 02:48:22;;;;;;;52.67;32.63;;;;;;;;;;4980095;28;20034;-88
2021/04/17 02:50:48;;;;;;;56.90;34.70;;;;;;;;;;4979706;28;20019;-89
2021/04/17 02:53:14;;;;;;;56.85;33.53;;;;;;;;;;4980205;28;20316;-87
2021/04/17 02:55:40;;;;;;;53.97;33.40;;;;;;;;;;4979793;28;20019;-88
2021/04/17 02:58:06;;;;;;;53.75;32.53;;;;;;;;;;4962835;28;20114;-88
2021/04/17 03:00:32;;;;;;;57.25;33.88;;;;;;;;;;4962656;28;20125;-87
2021/04/17 03:02:58;;;;;;;54.28;32.08;;;;;;;;;;4962649;28;20027;-89
2021/04/17 03:05:25;;;;;;;59.83;35.22;;;;;;;;;;4979438;28;20026;-88
2021/04/17 03:07:51;;;;;;;67.03;39.83;;;;;;;;;;4962810;28;20051;-87
2021/04/17 03:10:17;;;;;;;61.40;35.08;;;;;;;;;;4979276;28;20042;-86
2021/04/17 03:12:43;;;;;;;90.82;44.10;;;;;;;;;;4979462;28;20031;-89
2021/04/17 03:15:09;;;;;;;69.95;36.75;;;;;;;;;;4979690;28;20026;-89
2021/04/17 03:17:36;;;;;;;66.15;36.45;;;;;;;;;;4979704;28;20033;-89
2021/04/17 03:20:03;;;;;;;58.78;33.08;;;;;;;;;;4962494;28;20030;-89
2021/04/17 03:22:29;;;;;;;56.47;33.80;;;;;;;;;;4979330;28;20039;-89
2021/04/17 03:24:55;;;;;;;73.28;41.53;;;;;;;;;;4962220;28;20070;-89
2021/04/17 03:27:22;;;;;;;121.20;62.17;;;;;;;;;;4962257;28;20334;-89
2021/04/17 03:29:48;;;;;;;101.35;53.38;;;;;;;;;;4962405;28;20109;-88
2021/04/17 03:32:14;;;;;;;86.13;47.35;;;;;;;;;;4979646;28;20037;-88
2021/04/17 03:37:44;;;;;;;58.17;35.25;;;;;;;;;;4979488;28;20050;-92
2021/04/17 03:40:10;;;;;;;72.78;39.50;;;;;;;;;;4979185;28;20034;-91
2021/04/17 03:42:37;;;;;;;60.80;36.20;;;;;;;;;;4962076;28;20034;-91
2021/04/17 03:45:04;;;;;;;56.35;34.65;;;;;;;;;;4979276;28;20348;-87
2021/04/17 03:47:30;;;;;;;55.63;35.05;;;;;;;;;;4979248;28;20030;-87
2021/04/17 03:52:59;;;;;;;50.55;30.38;;;;;;;;;;4979051;28;20109;-86
2021/04/17 03:55:25;;;;;;;52.58;29.23;;;;;;;;;;4979416;28;20030;-86
2021/04/17 03:57:51;;;;;;;48.85;30.63;;;;;;;;;;4978892;28;20019;-86
2021/04/17 04:00:19;;;;;;;45.15;28.23;;;;;;;;;;4962030;28;20027;-86
2021/04/17 04:02:45;;;;;;;48.60;28.92;;;;;;;;;;4978957;28;20022;-87
2021/04/17 04:05:12;;;;;;;42.40;28.15;;;;;;;;;;4961373;28;20126;-87
2021/04/17 04:07:39;;;;;;;45.47;28.33;;;;;;;;;;4979255;28;20026;-87
2021/04/17 04:10:06;;;;;;;43.63;27.52;;;;;;;;;;4978633;28;20051;-85
2021/04/17 04:12:32;;;;;;;41.33;26.08;;;;;;;;;;4961790;28;20031;-86
2021/04/17 04:14:58;;;;;;;57.38;31.38;;;;;;;;;;4962072;28;20317;-87
2021/04/17 04:17:24;;;;;;;63.35;37.47;;;;;;;;;;4963673;28;20057;-88
2021/04/17 04:19:50;;;;;;;67.07;39.13;;;;;;;;;;4982961;28;20027;-88
2021/04/17 04:22:16;;;;;;;92.47;56.00;;;;;;;;;;4965669;28;20117;-90
2021/04/17 04:24:42;;;;;;;74.72;46.03;;;;;;;;;;4982884;28;20022;-87
2021/04/17 04:27:10;;;;;;;55.30;32.90;;;;;;;;;;4982860;28;20027;-88
2021/04/17 04:29:36;;;;;;;47.13;29.17;;;;;;;;;;4982429;28;20105;-88
2021/04/17 04:32:03;;;;;;;48.20;30.05;;;;;;;;;;4982515;28;20023;-90
2021/04/17 04:34:29;;;;;;;57.20;32.97;;;;;;;;;;4982360;28;20409;-89
2021/04/17 04:36:55;;;;;;;51.25;30.42;;;;;;;;;;4965333;28;20027;-88
2021/04/17 04:39:21;;;;;;;54.78;32.35;;;;;;;;;;4982283;28;20086;-89
2021/04/17 04:41:47;;;;;;;54.47;33.10;;;;;;;;;;4965125;28;20035;-90
2021/04/17 04:44:13;;;;;;;54.67;31.58;;;;;;;;;;4982664;28;20039;-88
2021/04/17 04:46:39;;;;;;;50.97;30.95;;;;;;;;;;4982181;28;20027;-89
2021/04/17 04:49:05;;;;;;;49.17;30.45;;;;;;;;;;4964963;28;20043;-89
2021/04/17 04:51:31;;;;;;;50.00;29.98;;;;;;;;;;4965041;28;20031;-89
2021/04/17 04:53:57;;;;;;;53.58;32.95;;;;;;;;;;4982266;28;20396;-88
2021/04/17 04:56:24;;;;;;;51.53;32.10;;;;;;;;;;4964880;28;20063;-88
2021/04/17 04:58:50;;;;;;;61.25;33.70;;;;;;;;;;4965187;28;20035;-86
2021/04/17 05:01:16;;;;;;;94.30;46.05;;;;;;;;;;4981299;28;20050;-87
2021/04/17 05:06:46;;;;;;;326.10;138.05;;;;;;;;;;4982253;28;20058;-87
2021/04/17 05:09:12;;;;;;;151.43;70.40;;;;;;;;;;4964337;28;20035;-85
2021/04/17 05:11:38;;;;;;;112.85;53.83;;;;;;;;;;4981788;28;20067;-85
2021/04/17 05:14:04;;;;;;;82.82;44.60;;;;;;;;;;4981927;28;20053;-84
2021/04/17 05:16:30;;;;;;;74.75;40.45;;;;;;;;;;4981598;28;20421;-87
2021/04/17 05:22:34;;;;;;;52.17;31.95;;;;;;;;;;4981771;28;20038;-87
2021/04/17 05:25:00;;;;;;;51.10;29.85;;;;;;;;;;4981376;28;20027;-88
2021/04/17 05:27:26;;;;;;;44.40;28.80;;;;;;;;;;4981095;28;20037;-87
2021/04/17 05:29:53;;;;;;;54.42;31.55;;;;;;;;;;4981449;28;20405;-87
2021/04/17 05:32:19;;;;;;;53.95;33.00;;;;;;;;;;4981540;28;20050;-87
2021/04/17 05:37:48;;;;;;;54.60;31.98;;;;;;;;;;4981440;28;20487;-88
2021/04/17 05:40:15;;;;;;;51.50;32.10;;;;;;;;;;4964314;28;20043;-87
2021/04/17 05:42:41;;;;;;;53.15;33.17;;;;;;;;;;4981072;28;20030;-87
2021/04/17 05:45:07;;;;;;;58.08;32.58;;;;;;;;;;4963813;28;20034;-85
2021/04/17 05:47:33;;;;;;;50.55;32.42;;;;;;;;;;4981008;28;20313;-86
2021/04/17 05:53:03;;;;;;;47.63;30.30;;;;;;;;;;4981367;28;20046;-86
2021/04/17 05:55:29;;;;;;;53.40;33.67;;;;;;;;;;4980904;28;20401;-80
2021/04/17 05:57:55;;;;;;;50.85;32.60;;;;;;;;;;4981220;28;20089;-89
2021/04/17 06:00:21;;;;;;;53.10;29.98;;;;;;;;;;4981201;28;20022;-85
2021/04/17 06:02:47;;;;;;;42.70;25.88;;;;;;;;;;4981052;28;20053;-86
2021/04/17 06:08:18;;;;;;;35.92;23.50;;;;;;;;;;4980865;28;20046;-86
2021/04/17 06:10:44;;;;;;;35.25;22.92;;;;;;;;;;4980540;28;20070;-86
2021/04/17 06:13:10;;;;;;;39.80;24.33;;;;;;;;;;4980625;28;20381;-85
2021/04/17 06:15:36;;;;;;;34.70;23.08;;;;;;;;;;4963030;28;20035;-88
2021/04/17 06:18:02;;;;;;;29.65;21.25;;;;;;;;;;4980722;28;20097;-88
2021/04/17 06:23:34;;;;;;;27.42;18.45;;;;;;;;;;4980515;28;20049;-88
2021/04/17 06:26:00;;;;;;;29.80;19.33;;;;;;;;;;4962883;28;20034;-88
2021/04/17 06:28:26;;;;;;;27.38;18.88;;;;;;;;;;4980207;28;20402;-88
2021/04/17 06:30:52;;;;;;;27.13;18.95;;;;;;;;;;4980171;28;20023;-88
2021/04/17 06:33:18;;;;;;;29.30;18.67;;;;;;;;;;4980484;28;20031;-88
2021/04/17 06:39:19;;;;;;;22.30;15.57;;;;;;;;;;4979999;28;20057;-88
2021/04/17 06:41:47;;;;;;;24.05;16.35;;;;;;;;;;4963136;28;20062;-85
2021/04/17 06:44:15;;;;;;;24.75;17.88;;;;;;;;;;4963000;28;20030;-86
2021/04/17 06:46:41;;;;;;;25.75;18.02;;;;;;;;;;4980246;28;20027;-85
2021/04/17 06:52:15;;;;;;;21.65;15.52;;;;;;;;;;4960715;29;20034;-85
2021/04/17 06:54:42;;;;;;;29.33;16.63;;;;;;;;;;4943813;29;20030;-85
2021/04/17 06:57:08;;;;;;;31.90;16.02;;;;;;;;;;4960795;29;20019;-85
2021/04/17 06:59:34;;;;;;;29.10;16.70;;;;;;;;;;4960492;29;20027;-84
2021/04/17 07:02:00;;;;;;;22.27;15.38;;;;;;;;;;4960703;29;20122;-86
2021/04/17 07:04:27;;;;;;;23.30;15.57;;;;;;;;;;4960701;29;20023;-85
2021/04/17 07:06:54;;;;;;;25.42;16.38;;;;;;;;;;4960834;29;20321;-86
2021/04/17 07:09:23;;;;;;;40.60;19.92;;;;;;;;;;4960088;29;20163;-85
2021/04/17 07:11:49;;;;;;;29.42;17.25;;;;;;;;;;4960269;29;20437;-85
2021/04/17 07:14:17;;;;;;;28.40;19.02;;;;;;;;;;4960169;29;20054;-85
2021/04/17 07:17:00;;;;;;;34.78;23.52;;;;;;;;;;4943259;29;20110;-86
2021/04/17 07:19:47;;;;;;;27.92;18.58;;;;;;;;;;4943225;29;20027;-85
2021/04/17 07:22:14;;;;;;;25.98;16.50;;;;;;;;;;4960128;29;20027;-85
2021/04/17 07:24:40;;;;;;;22.33;14.85;;;;;;;;;;4960362;29;20081;-86
2021/04/17 07:27:06;;;;;;;20.88;13.75;;;;;;;;;;4943276;29;20118;-86
2021/04/17 07:29:40;;;;;;;22.63;16.00;;;;;;;;;;4959768;29;20027;-85
2021/04/17 07:32:16;;;;;;;22.35;15.32;;;;;;;;;;4943208;29;20033;-85
2021/04/17 07:34:42;;;;;;;20.75;15.25;;;;;;;;;;4959933;28;20027;-86
2021/04/17 07:37:15;;;;;;;19.35;14.43;;;;;;;;;;4960147;29;20043;-86
2021/04/17 07:39:42;;;;;;;20.50;14.52;;;;;;;;;;4942819;29;20337;-85
2021/04/17 07:42:15;;;;;;;22.60;14.60;;;;;;;;;;4960124;29;20027;-86
2021/04/17 07:44:45;;;;;;;20.20;14.43;;;;;;;;;;4959536;29;20028;-85
2021/04/17 07:47:12;;;;;;;20.92;14.82;;;;;;;;;;4942901;29;20024;-85
2021/04/17 07:49:39;;;;;;;22.98;15.65;;;;;;;;;;4959487;29;20031;-85
2021/04/17 07:52:13;;;;;;;21.02;14.65;;;;;;;;;;4959504;28;20106;-85
2021/04/17 07:54:40;;;;;;;20.90;14.82;;;;;;;;;;4942772;29;20362;-85
2021/04/17 07:57:07;;;;;;;18.88;14.00;;;;;;;;;;4942333;29;20032;-86
2021/04/17 07:59:34;;;;;;;17.65;13.02;;;;;;;;;;4942234;29;20059;-86
2021/04/17 08:02:00;;;;;;;17.95;13.60;;;;;;;;;;4959636;29;20047;-85
2021/04/17 08:04:27;;;;;;;16.45;13.15;;;;;;;;;;4959412;28;20034;-85
2021/04/17 08:06:54;;;;;;;19.30;14.30;;;;;;;;;;4942868;29;20027;-86
2021/04/17 08:09:21;;;;;;;20.75;14.82;;;;;;;;;;4959289;29;20074;-86
2021/04/17 08:11:49;;;;;;;22.63;14.30;;;;;;;;;;4959509;29;20031;-86
2021/04/17 08:14:16;;;;;;;19.65;13.68;;;;;;;;;;4942574;29;20410;-86
2021/04/17 08:16:42;;;;;;;21.40;15.13;;;;;;;;;;4959290;29;20429;-86
2021/04/17 08:19:08;;;;;;;17.33;12.15;;;;;;;;;;4942472;29;20031;-86
2021/04/17 08:21:34;;;;;;;14.68;12.20;;;;;;;;;;4958919;28;20027;-86
2021/04/17 08:24:00;;;;;;;15.32;12.20;;;;;;;;;;4959608;29;20081;-84
2021/04/17 08:26:30;;;;;;;15.50;11.65;;;;;;;;;;4959614;29;20031;-86
2021/04/17 08:28:56;;;;;;;18.52;13.30;;;;;;;;;;4959561;29;20027;-86
2021/04/17 08:31:25;;;;;;;19.23;14.18;;;;;;;;;;4959673;29;20050;-86
2021/04/17 08:43:06;;;;;;;31.40;19.45;;;;;;;;;;4966374;28;20065;-85
2021/04/17 08:45:32;;;;;;;22.52;14.95;;;;;;;;;;4978667;28;20046;-85
2021/04/17 08:47:59;;;;;;;20.75;14.98;;;;;;;;;;4960986;28;20023;-86
2021/04/17 08:50:37;;;;;;;19.08;12.88;;;;;;;;;;4960902;28;20365;-86
2021/04/17 08:53:04;;;;;;;22.98;16.50;;;;;;;;;;4977219;28;20026;-85
2021/04/17 08:55:43;;;;;;;24.55;16.50;;;;;;;;;;4978284;28;20039;-85
2021/04/17 08:58:23;;;;;;;19.52;13.63;;;;;;;;;;4978555;28;20023;-85
2021/04/17 09:00:52;;;;;;;19.05;13.50;;;;;;;;;;4978216;28;20409;-85
2021/04/17 09:03:38;;;;;;;20.50;13.80;;;;;;;;;;4962545;28;20065;-85
2021/04/17 09:06:05;;;;;;;17.73;13.05;;;;;;;;;;4964443;28;20484;-85
2021/04/17 09:08:31;;;;;;;22.42;15.60;;;;;;;;;;4964507;28;20035;-85
2021/04/17 09:10:57;;;;;;;18.67;13.80;;;;;;;;;;4964357;28;20046;-85
2021/04/17 09:13:26;;;;;;;16.00;12.25;;;;;;;;;;4965021;28;20019;-85
2021/04/17 09:15:56;;;;;;;16.52;12.85;;;;;;;;;;4981828;28;20023;-85
2021/04/17 09:18:34;;;;;;;19.45;14.70;;;;;;;;;;4981736;28;20023;-85
2021/04/17 09:21:01;;;;;;;18.67;13.15;;;;;;;;;;4964588;28;20030;-85
2021/04/17 09:23:44;;;;;;;17.63;12.90;;;;;;;;;;4964965;28;20038;-84
2021/04/17 09:26:29;;;;;;;20.63;14.38;;;;;;;;;;4963894;28;20436;-85
2021/04/17 09:28:56;;;;;;;18.20;13.00;;;;;;;;;;4981667;28;20022;-85
2021/04/17 09:31:22;;;;;;;20.60;14.20;;;;;;;;;;4962727;28;20026;-85
2021/04/17 09:33:58;;;;;;;19.00;13.68;;;;;;;;;;4980233;28;20023;-85
2021/04/17 09:36:24;;;;;;;16.02;12.15;;;;;;;;;;4981070;28;20065;-84
2021/04/17 09:38:50;;;;;;;16.45;11.95;;;;;;;;;;4980940;28;20042;-85
2021/04/17 09:41:16;;;;;;;17.13;12.10;;;;;;;;;;4964127;28;20413;-84
2021/04/17 09:43:42;;;;;;;17.08;11.93;;;;;;;;;;4981157;28;20043;-84
2021/04/17 09:46:19;;;;;;;18.60;11.73;;;;;;;;;;4981316;28;20349;-85
2021/04/17 09:48:45;;;;;;;19.13;12.77;;;;;;;;;;4963875;28;20026;-85
2021/04/17 09:54:15;;;;;;;20.02;13.85;;;;;;;;;;4981186;28;20054;-85
2021/04/17 09:56:42;;;;;;;30.23;15.35;;;;;;;;;;4963763;28;20034;-85
2021/04/17 09:59:09;;;;;;;19.42;13.57;;;;;;;;;;4981189;28;20027;-84
2021/04/17 10:01:36;;;;;;;21.85;14.02;;;;;;;;;;4981009;28;20027;-84
2021/04/17 10:04:03;;;;;;;21.00;13.18;;;;;;;;;;4980633;28;20031;-83
2021/04/17 10:09:32;;;;;;;16.65;11.63;;;;;;;;;;4980551;28;20050;-85
2021/04/17 10:12:06;;;;;;;15.55;11.90;;;;;;;;;;4980726;28;20027;-85
2021/04/17 10:14:32;;;;;;;15.52;12.32;;;;;;;;;;4979062;28;20023;-85
2021/04/17 10:16:58;;;;;;;16.60;12.52;;;;;;;;;;4963842;28;20031;-85
2021/04/17 10:19:24;;;;;;;20.17;13.20;;;;;;;;;;4963267;28;20093;-85
2021/04/17 10:21:58;;;;;;;17.30;12.40;;;;;;;;;;4962994;28;20081;-85
2021/04/17 10:24:34;;;;;;;29.30;16.58;;;;;;;;;;4963290;28;20022;-84
2021/04/17 10:27:06;;;;;;;18.75;12.88;;;;;;;;;;4980226;28;20484;-85
2021/04/17 10:29:46;;;;;;;17.73;11.50;;;;;;;;;;4980226;28;20066;-84
2021/04/17 10:32:14;;;;;;;22.70;13.27;;;;;;;;;;4980282;28;20023;-82
2021/04/17 10:34:41;;;;;;;26.92;18.77;;;;;;;;;;4962940;28;20324;-82
2021/04/17 10:37:12;;;;;;;20.20;15.15;;;;;;;;;;4980064;28;20037;-82
2021/04/17 10:39:56;;;;;;;20.63;15.07;;;;;;;;;;4979630;28;20031;-85
2021/04/17 10:42:22;;;;;;;20.30;14.10;;;;;;;;;;4963164;28;20041;-84
2021/04/17 10:44:53;;;;;;;23.13;13.93;;;;;;;;;;4979734;28;20026;-85
2021/04/17 10:47:19;;;;;;;22.67;15.68;;;;;;;;;;4979658;28;20042;-84
2021/04/17 10:55:53;;;;;;;18.08;13.70;;;;;;;;;;4979965;28;20041;-84
2021/04/17 10:58:30;;;;;;;15.15;12.25;;;;;;;;;;4979557;28;20030;-84
2021/04/17 11:00:58;;;;;;;18.73;14.13;;;;;;;;;;4980759;28;20467;-84
2021/04/17 11:03:32;;;;;;;16.58;13.05;;;;;;;;;;4981683;28;20027;-85
2021/04/17 11:06:10;;;;;;;19.33;12.02;;;;;;;;;;4981876;28;20027;-85
2021/04/17 11:08:37;;;;;;;21.90;13.85;;;;;;;;;;4982126;28;20417;-87
2021/04/17 11:11:11;;;;;;;17.60;12.43;;;;;;;;;;4981712;28;20066;-83
2021/04/17 11:13:39;;;;;;;19.20;13.40;;;;;;;;;;4981757;28;20030;-85
2021/04/17 11:16:05;;;;;;;18.08;13.43;;;;;;;;;;4981660;28;20019;-83
2021/04/17 11:18:39;;;;;;;15.27;12.13;;;;;;;;;;4980789;28;20050;-83
2021/04/17 11:24:13;;;;;;;191.55;70.25;;;;;;;;;;4979913;28;20065;-83
2021/04/17 11:26:40;;;;;;;29.60;17.88;;;;;;;;;;4979832;28;20069;-82
2021/04/17 11:29:06;;;;;;;24.45;17.52;;;;;;;;;;4979174;28;20456;-82
2021/04/17 11:31:33;;;;;;;19.35;13.90;;;;;;;;;;4979185;28;20030;-82
2021/04/17 11:34:04;;;;;;;16.63;12.02;;;;;;;;;;4978923;28;20019;-83
2021/04/17 11:36:31;;;;;;;18.42;12.40;;;;;;;;;;4978802;28;20027;-82
2021/04/17 11:38:58;;;;;;;16.98;12.55;;;;;;;;;;4961463;28;20042;-83
2021/04/17 11:41:24;;;;;;;20.30;13.40;;;;;;;;;;4978917;28;20034;-82
2021/04/17 11:43:50;;;;;;;15.68;11.60;;;;;;;;;;4978876;28;20417;-82
2021/04/17 11:46:17;;;;;;;16.75;12.55;;;;;;;;;;4978648;28;20037;-82
2021/04/17 11:48:44;;;;;;;18.50;12.48;;;;;;;;;;4978634;28;20023;-83
2021/04/17 11:51:10;;;;;;;16.95;13.32;;;;;;;;;;4978774;28;20036;-82
2021/04/17 11:53:37;;;;;;;13.95;11.48;;;;;;;;;;4978762;28;20031;-82
2021/04/17 11:56:05;;;;;;;14.15;11.48;;;;;;;;;;4978391;28;20023;-83
2021/04/17 11:58:31;;;;;;;18.67;13.10;;;;;;;;;;4978570;28;20022;-84
2021/04/17 12:00:57;;;;;;;14.77;10.55;;;;;;;;;;4978306;28;20521;-83
2021/04/17 12:03:24;;;;;;;16.77;10.93;;;;;;;;;;4960725;28;20066;-83
2021/04/17 12:06:08;;;;;;;13.35;10.38;;;;;;;;;;4978599;28;20195;-83
2021/04/17 12:08:34;;;;;;;13.05;10.02;;;;;;;;;;4978208;28;20034;-84
2021/04/17 12:11:02;;;;;;;13.13;10.50;;;;;;;;;;4978292;28;20441;-84
2021/04/17 12:13:28;;;;;;;21.92;13.10;;;;;;;;;;4978562;28;20031;-83
2021/04/17 12:15:54;;;;;;;19.25;12.48;;;;;;;;;;4978476;28;20030;-84
2021/04/17 12:18:21;;;;;;;13.65;10.52;;;;;;;;;;4961417;28;20095;-83
2021/04/17 12:20:47;;;;;;;26.58;19.15;;;;;;;;;;4978697;28;20030;-84
2021/04/17 12:23:13;;;;;;;20.52;12.30;;;;;;;;;;4978534;28;20026;-84
2021/04/17 12:25:39;;;;;;;17.20;10.18;;;;;;;;;;4978426;28;20406;-82
2021/04/17 12:28:06;;;;;;;18.30;11.52;;;;;;;;;;4978040;28;20117;-82
2021/04/17 12:30:32;;;;;;;14.18;9.75;;;;;;;;;;4978435;28;20026;-85
2021/04/17 12:32:58;;;;;;;17.38;13.35;;;;;;;;;;4978209;28;20019;-85
2021/04/17 12:42:08;;;;;;;14.55;11.35;;;;;;;;;;4982301;28;20082;-85
2021/04/17 12:44:34;;;;;;;13.85;11.27;;;;;;;;;;4982122;28;20031;-85
2021/04/17 12:47:00;;;;;;;17.52;13.13;;;;;;;;;;4964553;28;20373;-84
2021/04/17 12:49:26;;;;;;;15.82;12.20;;;;;;;;;;4973251;28;20027;-84
2021/04/17 12:51:53;;;;;;;15.45;11.88;;;;;;;;;;4954302;28;20325;-84
2021/04/17 12:54:19;;;;;;;12.18;9.70;;;;;;;;;;4971456;28;20037;-84
2021/04/17 12:56:45;;;;;;;15.95;11.70;;;;;;;;;;4946044;29;20019;-84
2021/04/17 12:59:11;;;;;;;14.02;10.90;;;;;;;;;;4962860;29;20038;-84
2021/04/17 13:01:37;;;;;;;18.23;13.65;;;;;;;;;;4962691;29;20034;-85
2021/04/17 13:04:03;;;;;;;21.75;12.90;;;;;;;;;;4945710;29;20043;-85
2021/04/17 13:13:04;;;;;;;14.65;11.30;;;;;;;;;;4944327;29;20050;-84
2021/04/17 13:15:30;;;;;;;15.18;10.57;;;;;;;;;;4944955;29;20043;-86
2021/04/17 13:17:56;;;;;;;16.88;11.48;;;;;;;;;;4945389;29;20027;-85
2021/04/17 13:23:25;;;;;;;14.18;10.07;;;;;;;;;;4962529;29;20114;-84
2021/04/17 13:25:51;;;;;;;17.35;12.73;;;;;;;;;;4962065;29;20127;-84
2021/04/17 13:28:18;;;;;;;13.48;10.07;;;;;;;;;;4961915;29;20059;-84
2021/04/17 13:30:44;;;;;;;16.20;11.05;;;;;;;;;;4960081;28;20034;-84
2021/04/17 13:33:10;;;;;;;15.95;11.73;;;;;;;;;;4981236;28;20023;-85
2021/04/17 13:35:36;;;;;;;16.63;11.60;;;;;;;;;;4981523;28;20165;-84
2021/04/17 13:38:02;;;;;;;18.25;11.55;;;;;;;;;;4981286;28;20027;-85
2021/04/17 13:40:28;;;;;;;15.50;12.50;;;;;;;;;;4980957;28;20023;-85
2021/04/17 13:42:54;;;;;;;13.02;10.60;;;;;;;;;;4981390;28;20151;-84
2021/04/17 13:45:20;;;;;;;16.95;10.15;;;;;;;;;;4981259;28;20027;-84
2021/04/17 13:47:46;;;;;;;12.32;9.98;;;;;;;;;;4981090;28;20057;-85
2021/04/17 13:50:13;;;;;;;19.95;11.95;;;;;;;;;;4980951;28;20114;-85
2021/04/17 13:52:39;;;;;;;16.50;11.40;;;;;;;;;;4963416;28;20039;-84
2021/04/17 13:55:06;;;;;;;14.15;10.32;;;;;;;;;;4980967;28;20029;-85
2021/04/17 13:57:32;;;;;;;13.15;10.55;;;;;;;;;;4981117;28;20030;-85
2021/04/17 13:59:58;;;;;;;15.57;11.38;;;;;;;;;;4980984;28;20057;-84
2021/04/17 14:02:25;;;;;;;15.63;11.43;;;;;;;;;;4981057;28;20023;-85
2021/04/17 14:04:51;;;;;;;22.33;14.75;;;;;;;;;;4980957;28;20030;-85
2021/04/17 14:07:55;;;;;;;23.80;15.20;;;;;;;;;;4963642;28;20035;-85
2021/04/17 14:10:21;;;;;;;24.15;15.40;;;;;;;;;;4973652;28;20034;-84
2021/04/17 14:12:48;;;;;;;19.27;12.32;;;;;;;;;;4944183;29;20037;-84
2021/04/17 14:15:14;;;;;;;14.98;10.40;;;;;;;;;;4974776;28;20074;-84
2021/04/17 14:17:41;;;;;;;14.85;11.15;;;;;;;;;;4980564;28;20520;-83
2021/04/17 14:20:08;;;;;;;14.30;10.13;;;;;;;;;;4972357;28;20077;-85
2021/04/17 14:22:34;;;;;;;12.27;9.80;;;;;;;;;;4979438;28;20035;-86
2021/04/17 14:25:00;;;;;;;11.80;8.63;;;;;;;;;;4979892;28;20039;-85
2021/04/17 14:27:26;;;;;;;13.27;10.25;;;;;;;;;;4974165;28;20414;-86
2021/04/17 14:29:52;;;;;;;19.13;13.15;;;;;;;;;;4960734;29;20031;-85
2021/04/17 14:32:18;;;;;;;22.17;14.88;;;;;;;;;;4969876;28;20022;-85
2021/04/17 14:34:44;;;;;;;17.73;13.07;;;;;;;;;;4963226;28;20019;-85
2021/04/17 14:37:11;;;;;;;20.13;11.63;;;;;;;;;;4980412;28;20030;-86
2021/04/17 14:39:38;;;;;;;13.13;9.95;;;;;;;;;;4963164;28;20034;-85
2021/04/17 14:42:04;;;;;;;14.18;11.85;;;;;;;;;;4980027;28;20412;-85
2021/04/17 14:44:33;;;;;;;44.05;23.67;;;;;;;;;;4980052;28;20031;-85
2021/04/17 14:46:59;;;;;;;59.22;31.80;;;;;;;;;;4962882;28;20058;-85
2021/04/17 14:49:25;;;;;;;45.25;30.02;;;;;;;;;;4979471;28;20069;-85
2021/04/17 14:51:51;;;;;;;27.90;19.08;;;;;;;;;;4973157;28;20023;-85
2021/04/17 14:54:17;;;;;;;20.27;14.50;;;;;;;;;;4979349;28;20029;-85
2021/04/17 14:56:44;;;;;;;21.83;13.52;;;;;;;;;;4980097;28;20027;-85
2021/04/17 14:59:10;;;;;;;19.90;13.50;;;;;;;;;;4962639;28;20030;-85
2021/04/17 15:01:36;;;;;;;26.88;18.73;;;;;;;;;;4961951;28;20302;-85
2021/04/17 15:04:05;;;;;;;27.40;15.57;;;;;;;;;;4979672;28;20031;-85
2021/04/17 15:06:32;;;;;;;21.25;15.20;;;;;;;;;;4979895;28;20038;-85
2021/04/17 15:08:58;;;;;;;25.33;16.80;;;;;;;;;;4979007;28;20031;-84
2021/04/17 15:11:24;;;;;;;20.05;14.13;;;;;;;;;;4962262;28;20050;-84
2021/04/17 15:13:50;;;;;;;19.77;14.15;;;;;;;;;;4979309;28;20049;-84
2021/04/17 15:16:16;;;;;;;19.33;14.80;;;;;;;;;;4979617;28;20077;-84
2021/04/17 15:18:43;;;;;;;17.42;14.35;;;;;;;;;;4979755;28;20334;-85
2021/04/17 15:21:09;;;;;;;19.90;16.13;;;;;;;;;;4979781;28;20015;-85
2021/04/17 15:23:35;;;;;;;16.63;13.43;;;;;;;;;;4978896;28;20029;-84
2021/04/17 15:26:02;;;;;;;21.75;15.27;;;;;;;;;;4979042;28;20070;-84
2021/04/17 15:28:29;;;;;;;24.23;18.90;;;;;;;;;;4979034;28;20101;-85
2021/04/17 15:30:56;;;;;;;22.33;16.67;;;;;;;;;;4962060;28;20015;-85
2021/04/17 15:33:23;;;;;;;19.13;14.45;;;;;;;;;;4961883;28;20417;-86
2021/04/17 15:35:52;;;;;;;16.75;13.25;;;;;;;;;;4979013;28;20026;-86